Flight Track Log - Related Links

Times and Time Zones

All times are in EDT time to prevent confusion due to time zone crossing. See the DAL110 flight status page for this flight to view local times or setup timezone preferences in your user account.

Time Position Orientation Groundspeed Altitude Reporting Facility
EDT Latitude Longitude Course Direction KTS MPH feet Rate Location/Type
Mon 09:26:47 AM 33.7860 -84.2860 340° North 275 316 9,300  Level FlightAware ADS-B
Mon 09:26:57 AM 33.7960 -84.2930 330° Northwest 281 323 9,600 2,160 Climbing FlightAware ADS-B
Mon 09:27:12 AM 33.8090 -84.3140 307° West 292 336 10,200 3,200 Climbing FlightAware ADS-B
Mon 09:27:27 AM 33.8120 -84.3440 277° West 302 348 11,200 2,520 Climbing FlightAware ADS-B
Mon 09:28:02 AM 33.8120 -84.4060 270° West 346 398 12,300 2,400 Climbing FlightAware ADS-B
Mon 09:28:42 AM 33.8110 -84.4860 269° West 368 423 14,200 2,968 Climbing FlightAware ADS-B
Mon 09:29:37 AM 33.8070 -84.5920 267° West 384 442 17,000 3,284 Climbing FlightAware ADS-B
Mon 09:30:17 AM 33.7860 -84.6810 254° West 390 449 19,400 2,960 Climbing FlightAware ADS-B
Mon 09:30:52 AM 33.7700 -84.7460 254° West 404 465 20,700 2,480 Climbing FlightAware ADS-B
Mon 09:31:32 AM 33.7470 -84.8410 254° West 414 476 22,500 1,533 Climbing FlightAware ADS-B
Mon 09:32:22 AM 33.7200 -84.9480 253° West 416 479 23,000 333 Climbing FlightAware ADS-B
Mon 09:33:02 AM 33.6970 -85.0390 253° West 413 475 23,000 1,341 Level FlightAware ADS-B
Mon 09:33:47 AM 33.6700 -85.1460 253° West 421 484 24,900 2,400 Climbing FlightAware ADS-B
Mon 09:34:22 AM 33.6530 -85.2220 255° West 429 494 26,200 1,482 Climbing FlightAware ADS-B
Mon 09:35:12 AM 33.6450 -85.3290 265° West 429 494 27,000 2,200 Climbing FlightAware ADS-B
Mon 09:35:52 AM 33.6520 -85.4360 275° West 441 507 29,500 2,850 Climbing FlightAware ADS-B
Mon 09:36:32 AM 33.6540 -85.5330 271° West 448 516 30,800 2,325 Climbing FlightAware ADS-B
Mon 09:37:12 AM 33.6550 -85.6270 271° West 448 516 32,600 1,271 Climbing FlightAware ADS-B
Mon 09:37:57 AM 33.6550 -85.7270 270° West 448 516 32,600 907 Level FlightAware ADS-B
Mon 09:40:57 AM 33.6630 -86.1770 271° West 423 487 36,000 927 Climbing FlightAware ADS-B
Mon 09:41:37 AM 33.6640 -86.2630 271° West 424 488 36,000  Level FlightAware ADS-B
Mon 09:42:22 AM 33.6660 -86.3770 271° West 427 491 36,000  Level FlightAware ADS-B
Mon 09:43:07 AM 33.6670 -86.4810 271° West 429 494 36,000  Level FlightAware ADS-B
Mon 09:43:47 AM 33.6680 -86.5780 271° West 429 494 36,000  Level FlightAware ADS-B
Mon 09:44:22 AM 33.6680 -86.6620 270° West 430 495 36,000  Level FlightAware ADS-B
Mon 09:46:57 AM 33.6940 -87.0150 275° West 433 498 36,000  Level FlightAware ADS-B
Mon 09:48:12 AM 33.7320 -87.1860 285° West 432 497 36,000  Level FlightAware ADS-B
Mon 09:48:52 AM 33.7490 -87.2650 285° West 432 497 36,000  Level FlightAware ADS-B
Mon 09:49:32 AM 33.7670 -87.3440 285° West 432 497 36,000  Level FlightAware ADS-B
Mon 09:50:22 AM 33.7890 -87.4430 285° West 432 497 36,000  Level FlightAware ADS-B
Mon 09:51:02 AM 33.8070 -87.5220 285° West 432 497 36,000  Level FlightAware ADS-B
Mon 09:51:42 AM 33.8240 -87.6010 285° West 432 497 36,000  Level FlightAware ADS-B
Mon 09:52:22 AM 33.8420 -87.6800 285° West 432 497 36,000  Level FlightAware ADS-B
Mon 09:53:02 AM 33.8590 -87.7590 285° West 432 497 36,000  Level FlightAware ADS-B
Mon 09:53:52 AM 33.8810 -87.8580 285° West 432 497 36,000  Level FlightAware ADS-B
Mon 09:54:32 AM 33.8990 -87.9370 285° West 432 497 36,000  Level FlightAware ADS-B
Mon 09:55:12 AM 33.9160 -88.0160 285° West 432 497 36,000  Level FlightAware ADS-B
Mon 09:55:52 AM 33.9340 -88.0950 285° West 432 497 36,000  Level FlightAware ADS-B
Mon 09:56:32 AM 33.9520 -88.1740 285° West 432 497 36,000  Level FlightAware ADS-B
Mon 09:57:22 AM 33.9740 -88.2730 285° West 432 497 36,000  Level FlightAware ADS-B
Mon 09:58:06 AM 34.0114 -88.5531 285° West 432 497 36,000  Level Memphis Center
Mon 09:59:06 AM 34.0383 -88.6928 283° West 427 491 36,000  Level Memphis Center
Mon 10:00:06 AM 34.0675 -88.8428 283° West 422 486 36,000  Level Memphis Center
Mon 10:01:06 AM 34.0942 -88.9828 283° West 422 486 36,000  Level Memphis Center
Mon 10:02:06 AM 34.1228 -89.1228 284° West 427 491 36,000  Level Memphis Center
Mon 10:03:06 AM 34.1469 -89.2503 283° West 432 497 36,000  Level Memphis Center
Mon 10:04:06 AM 34.1731 -89.3881 283° West 432 497 36,000  Level Memphis Center
Mon 10:05:06 AM 34.2011 -89.5283 284° West 432 497 36,000  Level Memphis Center
Mon 10:06:06 AM 34.2250 -89.6664 282° West 432 497 36,000  Level Memphis Center
Mon 10:07:06 AM 34.2572 -89.8194 284° West 432 497 36,000  Level Memphis Center
Mon 10:08:06 AM 34.2828 -89.9625 282° West 427 491 36,000  Level Memphis Center
Mon 10:09:06 AM 34.3081 -90.1006 283° West 432 497 36,000  Level Memphis Center
Mon 10:10:06 AM 34.3333 -90.2414 282° West 432 497 36,000  Level Memphis Center
Mon 10:11:06 AM 34.3583 -90.3797 282° West 432 497 36,000  Level Memphis Center
Mon 10:12:06 AM 34.3856 -90.5183 283° West 432 497 36,000  Level Memphis Center
Mon 10:13:06 AM 34.4122 -90.6567 283° West 426 490 36,000  Level Memphis Center
Mon 10:14:06 AM 34.4328 -90.7803 281° West 426 490 36,000  Level Memphis Center
Mon 10:15:06 AM 34.4575 -90.9164 282° West 426 490 36,000  Level Memphis Center
Mon 10:16:06 AM 34.4817 -91.0575 282° West 431 496 36,000  Level Memphis Center
Mon 10:17:06 AM 34.5081 -91.1964 283° West 425 489 36,000  Level Memphis Center
Mon 10:18:06 AM 34.5319 -91.3353 282° West 425 489 36,000  Level Memphis Center
Mon 10:19:06 AM 34.5578 -91.4869 282° West 430 495 36,000  Level Memphis Center
Mon 10:20:06 AM 34.5836 -91.6261 283° West 430 495 36,000  Level Memphis Center
Mon 10:21:06 AM 34.6053 -91.7625 281° West 425 489 36,000  Level Memphis Center
Mon 10:22:06 AM 34.6328 -91.9019 284° West 425 489 36,000  Level Memphis Center
Mon 10:23:06 AM 34.6539 -92.0411 280° West 425 489 36,000  Level Memphis Center
Mon 10:24:06 AM 34.6769 -92.1806 281° West 425 489 36,000  Level Memphis Center
Mon 10:25:06 AM 34.6978 -92.3222 280° West 430 495 36,000  Level Memphis Center
Mon 10:26:06 AM 34.7164 -92.4617 279° West 430 495 36,000  Level Memphis Center
Mon 10:27:06 AM 34.7369 -92.5986 280° West 424 488 36,000  Level Memphis Center
Mon 10:28:06 AM 34.7553 -92.7408 279° West 424 488 36,000  Level Memphis Center
Mon 10:29:06 AM 34.7753 -92.8828 280° West 430 495 36,000  Level Memphis Center
Mon 10:30:06 AM 34.7975 -93.0200 281° West 425 489 36,000  Level Memphis Center
Mon 10:31:06 AM 34.8175 -93.1597 280° West 425 489 36,000  Level Memphis Center
Mon 10:37:02 AM 34.9280 -93.9970 280° West 423 487 36,000  Level FlightAware ADS-B
Mon 10:37:57 AM 34.9450 -94.1310 279° West 424 488 36,000  Level FlightAware ADS-B
Mon 10:38:37 AM 34.9580 -94.2260 280° West 423 487 36,000  Level FlightAware ADS-B
Mon 10:39:22 AM 34.9710 -94.3280 279° West 421 484 36,000  Level FlightAware ADS-B
Mon 10:39:57 AM 34.9810 -94.4070 279° West 423 487 36,000  Level FlightAware ADS-B
Mon 10:40:47 AM 34.9960 -94.5250 279° West 421 484 36,000  Level FlightAware ADS-B
Mon 10:41:27 AM 35.0070 -94.6170 278° West 422 486 36,000  Level FlightAware ADS-B
Mon 10:42:07 AM 35.0190 -94.7080 279° West 424 488 36,000  Level FlightAware ADS-B
Mon 10:42:52 AM 35.0330 -94.8130 279° West 423 487 36,000  Level FlightAware ADS-B
Mon 10:43:32 AM 35.0460 -94.9100 279° West 422 486 36,000  Level FlightAware ADS-B
Mon 10:44:12 AM 35.0590 -95.0030 280° West 421 484 36,000  Level FlightAware ADS-B
Mon 10:44:57 AM 35.0740 -95.1130 279° West 420 483 36,000  Level FlightAware ADS-B
Mon 10:45:52 AM 35.0900 -95.2350 279° West 420 483 36,000  Level FlightAware ADS-B
Mon 10:46:32 AM 35.1000 -95.3150 279° West 420 483 36,000  Level FlightAware ADS-B
Mon 10:47:12 AM 35.1100 -95.3950 279° West 420 483 36,000  Level FlightAware ADS-B
Mon 10:47:52 AM 35.1210 -95.4750 280° West 420 483 36,000  Level FlightAware ADS-B
Mon 10:48:32 AM 35.1390 -95.6190 279° West 423 487 36,000  Level FlightAware ADS-B
Mon 10:49:22 AM 35.1520 -95.7370 278° West 424 488 36,000  Level FlightAware ADS-B
Mon 10:50:02 AM 35.1640 -95.8330 279° West 423 487 36,000  Level FlightAware ADS-B
Mon 10:50:47 AM 35.1760 -95.9380 278° West 422 486 36,000  Level FlightAware ADS-B
Mon 10:51:27 AM 35.1870 -96.0310 278° West 422 486 36,000  Level FlightAware ADS-B
Mon 10:52:12 AM 35.1990 -96.1390 278° West 422 486 36,000  Level FlightAware ADS-B
Mon 10:52:52 AM 35.2100 -96.2330 278° West 422 486 36,000  Level FlightAware ADS-B
Mon 10:53:37 AM 35.2220 -96.3420 278° West 421 484 36,000  Level FlightAware ADS-B
Mon 10:54:17 AM 35.2320 -96.4300 278° West 419 482 36,000  Level FlightAware ADS-B
Mon 10:54:57 AM 35.2430 -96.5270 278° West 417 480 36,000  Level FlightAware ADS-B
Mon 10:55:42 AM 35.2550 -96.6320 278° West 417 480 36,000  Level FlightAware ADS-B
Mon 10:56:22 AM 35.2650 -96.7260 277° West 417 480 36,000  Level FlightAware ADS-B
Mon 10:57:02 AM 35.2750 -96.8170 278° West 416 479 36,000  Level FlightAware ADS-B
Mon 10:57:47 AM 35.2860 -96.9200 277° West 418 481 36,000  Level FlightAware ADS-B
Mon 10:58:27 AM 35.2960 -97.0140 277° West 418 481 36,000  Level FlightAware ADS-B
Mon 10:59:02 AM 35.3050 -97.0960 278° West 417 480 36,000  Level FlightAware ADS-B
Mon 10:59:47 AM 35.3170 -97.2060 278° West 418 481 36,000  Level FlightAware ADS-B
Mon 11:00:27 AM 35.3260 -97.2950 277° West 419 482 36,000  Level FlightAware ADS-B
Mon 11:01:07 AM 35.3360 -97.3900 277° West 419 482 36,000  Level FlightAware ADS-B
Mon 11:01:47 AM 35.3450 -97.4820 277° West 420 483 36,000  Level FlightAware ADS-B
Mon 11:02:32 AM 35.3560 -97.5920 277° West 419 482 36,000  Level FlightAware ADS-B
Mon 11:03:17 AM 35.3590 -97.6970 272° West 419 482 36,000  Level FlightAware ADS-B
Mon 11:03:52 AM 35.3590 -97.7800 270° West 419 482 36,000  Level FlightAware ADS-B
Mon 11:04:37 AM 35.3580 -97.8750 269° West 419 482 36,000  Level FlightAware ADS-B
Mon 11:05:12 AM 35.3590 -97.9710 271° West 420 483 36,000  Level FlightAware ADS-B
Mon 11:06:17 AM 35.3570 -98.1160 269° West 421 484 36,000  Level FlightAware ADS-B
Mon 11:06:57 AM 35.3560 -98.1970 269° West 421 484 36,000  Level FlightAware ADS-B
Mon 11:07:37 AM 35.3550 -98.2790 269° West 421 484 36,000  Level FlightAware ADS-B
Mon 11:08:22 AM 35.3570 -98.4160 271° West 418 481 36,000  Level FlightAware ADS-B
Mon 11:09:02 AM 35.3560 -98.4960 269° West 418 481 36,000  Level FlightAware ADS-B
Mon 11:09:42 AM 35.3550 -98.5770 269° West 418 481 36,000  Level FlightAware ADS-B
Mon 11:10:22 AM 35.3530 -98.6570 268° West 418 481 36,000  Level FlightAware ADS-B
Mon 11:11:12 AM 35.3520 -98.7580 269° West 418 481 36,000  Level FlightAware ADS-B
Mon 11:11:52 AM 35.3510 -98.8390 269° West 418 481 36,000  Level FlightAware ADS-B
Mon 11:12:32 AM 35.3500 -98.9190 269° West 418 481 36,000  Level FlightAware ADS-B
Mon 11:13:12 AM 35.3480 -99.0000 268° West 418 481 36,000  Level FlightAware ADS-B
Mon 11:13:52 AM 35.3470 -99.0810 269° West 418 481 36,000  Level FlightAware ADS-B
Mon 11:14:42 AM 35.3460 -99.1810 269° West 418 481 36,000  Level FlightAware ADS-B
Mon 11:15:22 AM 35.3450 -99.2620 269° West 418 481 36,000  Level FlightAware ADS-B
Mon 11:16:02 AM 35.3440 -99.3420 269° West 418 481 36,000  Level FlightAware ADS-B
Mon 11:16:42 AM 35.3420 -99.4230 268° West 418 481 36,000  Level FlightAware ADS-B
Mon 11:17:22 AM 35.3410 -99.5040 269° West 418 481 36,000  Level FlightAware ADS-B
Mon 11:17:50 AM 35.3417 -99.7414 269° West 420 483 36,000  Level Albuquerque Center
Mon 11:18:52 AM 35.3342 -99.8847 266° West 419 482 36,000  Level Albuquerque Center
Mon 11:19:54 AM 35.3264 -100.0558 267° West 418 481 36,000  Level Albuquerque Center
Mon 11:20:56 AM 35.3192 -100.1975 266° West 417 480 36,000  Level Albuquerque Center
Mon 11:21:58 AM 35.3125 -100.3411 267° West 419 482 36,000  Level Albuquerque Center
Mon 11:23:00 AM 35.3044 -100.4828 266° West 416 479 36,000  Level Albuquerque Center
Mon 11:24:02 AM 35.2978 -100.6256 267° West 419 482 36,000  Level Albuquerque Center
Mon 11:25:04 AM 35.2889 -100.7817 266° West 415 478 36,000  Level Albuquerque Center
Mon 11:26:06 AM 35.2814 -100.9250 266° West 420 483 36,000  Level Albuquerque Center
Mon 11:27:08 AM 35.2722 -101.0681 266° West 421 484 36,000  Level Albuquerque Center
Mon 11:28:10 AM 35.2644 -101.2122 266° West 425 489 36,000  Level Albuquerque Center
Mon 11:29:12 AM 35.2561 -101.3722 266° West 424 488 36,000  Level Albuquerque Center
Mon 11:30:14 AM 35.2489 -101.5144 266° West 420 483 36,000  Level Albuquerque Center
Mon 11:31:16 AM 35.2378 -101.6650 265° West 424 488 36,000  Level Albuquerque Center
Mon 11:32:18 AM 35.2314 -101.8103 267° West 425 489 36,000  Level Albuquerque Center
Mon 11:33:20 AM 35.2294 -101.9564 269° West 426 490 36,000  Level Albuquerque Center
Mon 11:34:22 AM 35.2261 -102.1178 269° West 427 491 36,000  Level Albuquerque Center
Mon 11:35:24 AM 35.2225 -102.2606 268° West 423 487 36,000  Level Albuquerque Center
Mon 11:36:27 AM 35.2192 -102.4039 268° West 422 486 36,000  Level Albuquerque Center
Mon 11:37:29 AM 35.2150 -102.5469 268° West 422 486 36,000  Level Albuquerque Center
Mon 11:38:31 AM 35.2108 -102.6881 268° West 419 482 36,000  Level Albuquerque Center
Mon 11:39:33 AM 35.2067 -102.8586 268° West 419 482 36,000  Level Albuquerque Center
Mon 11:40:35 AM 35.2028 -102.9897 268° West 417 480 36,000  Level Albuquerque Center
Mon 11:41:37 AM 35.1986 -103.1311 268° West 414 476 36,000  Level Albuquerque Center
Mon 11:42:39 AM 35.1936 -103.2978 268° West 417 480 36,000  Level Albuquerque Center
Mon 11:43:41 AM 35.1881 -103.4378 267° West 412 474 36,000  Level Albuquerque Center
Mon 11:44:43 AM 35.1839 -103.5786 268° West 411 473 36,000  Level Albuquerque Center
Mon 11:45:45 AM 35.1772 -103.7211 267° West 414 476 36,000  Level Albuquerque Center
Mon 11:46:47 AM 35.1708 -103.8631 267° West 414 476 36,000  Level Albuquerque Center
Mon 11:47:49 AM 35.1650 -104.0083 267° West 415 478 36,000  Level Albuquerque Center
Mon 11:48:51 AM 35.1581 -104.1478 267° West 414 476 36,000  Level Albuquerque Center
Mon 11:49:53 AM 35.1519 -104.2903 267° West 418 481 36,000  Level Albuquerque Center
Mon 11:50:55 AM 35.1450 -104.4294 267° West 414 476 36,000  Level Albuquerque Center
Mon 11:51:57 AM 35.1353 -104.5967 266° West 412 474 36,000  Level Albuquerque Center
Mon 11:52:59 AM 35.1289 -104.7217 266° West 412 474 36,000  Level Albuquerque Center
Mon 11:54:01 AM 35.1203 -104.8858 266° West 412 474 36,000  Level Albuquerque Center
Mon 11:55:03 AM 35.1122 -105.0272 266° West 413 475 36,000  Level Albuquerque Center
Mon 11:56:05 AM 35.1069 -105.1678 267° West 411 473 36,000  Level Albuquerque Center
Mon 12:01:42 PM 35.0800 -105.9500 267° West 408 470 36,000  Level FlightAware ADS-B
Mon 12:02:22 PM 35.0770 -106.0400 268° West 407 468 36,000  Level FlightAware ADS-B
Mon 12:03:07 PM 35.0720 -106.1480 267° West 408 470 36,000  Level FlightAware ADS-B
Mon 12:03:47 PM 35.0690 -106.2420 268° West 409 471 36,000  Level FlightAware ADS-B
Mon 12:04:32 PM 35.0640 -106.3450 267° West 412 474 36,000  Level FlightAware ADS-B
Mon 12:05:12 PM 35.0600 -106.4370 267° West 412 474 36,000  Level FlightAware ADS-B
Mon 12:05:52 PM 35.0570 -106.5280 268° West 411 473 36,000  Level FlightAware ADS-B
Mon 12:06:37 PM 35.0520 -106.6350 267° West 409 471 36,000  Level FlightAware ADS-B
Mon 12:07:17 PM 35.0480 -106.7280 267° West 409 471 36,000  Level FlightAware ADS-B
Mon 12:08:02 PM 35.0430 -106.8280 267° West 409 471 36,000  Level FlightAware ADS-B
Mon 12:08:42 PM 35.0410 -106.9210 269° West 414 476 36,000  Level FlightAware ADS-B
Mon 12:09:22 PM 35.0390 -107.0150 269° West 414 476 36,000  Level FlightAware ADS-B
Mon 12:10:07 PM 35.0360 -107.1210 268° West 415 478 36,000  Level FlightAware ADS-B
Mon 12:10:47 PM 35.0340 -107.2140 269° West 415 478 36,000  Level FlightAware ADS-B
Mon 12:11:32 PM 35.0310 -107.3180 268° West 413 475 36,000  Level FlightAware ADS-B
Mon 12:12:12 PM 35.0280 -107.4110 268° West 414 476 36,000  Level FlightAware ADS-B
Mon 12:12:52 PM 35.0260 -107.5040 269° West 412 474 36,000  Level FlightAware ADS-B
Mon 12:13:37 PM 35.0220 -107.6090 267° West 410 472 36,000  Level FlightAware ADS-B
Mon 12:14:17 PM 35.0200 -107.7010 269° West 411 473 36,000  Level FlightAware ADS-B
Mon 12:14:57 PM 35.0170 -107.7950 268° West 413 475 36,000  Level FlightAware ADS-B
Mon 12:15:42 PM 35.0130 -107.8960 267° West 414 476 36,000  Level FlightAware ADS-B
Mon 12:16:22 PM 35.0100 -107.9910 268° West 416 479 36,000  Level FlightAware ADS-B
Mon 12:17:07 PM 35.0070 -108.0980 268° West 420 483 36,000  Level FlightAware ADS-B
Mon 12:17:47 PM 35.0030 -108.1930 267° West 420 483 36,000  Level FlightAware ADS-B
Mon 12:18:27 PM 35.0000 -108.2870 268° West 418 481 36,000  Level FlightAware ADS-B
Mon 12:19:12 PM 34.9960 -108.3900 267° West 418 481 36,000  Level FlightAware ADS-B
Mon 12:19:52 PM 34.9930 -108.4850 268° West 417 480 36,000  Level FlightAware ADS-B
Mon 12:20:37 PM 34.9890 -108.5820 267° West 416 479 36,000  Level FlightAware ADS-B
Mon 12:21:17 PM 34.9850 -108.6620 267° West 416 479 36,000  Level FlightAware ADS-B
Mon 12:21:57 PM 34.9820 -108.7420 267° West 416 479 36,000  Level FlightAware ADS-B
Mon 12:22:42 PM 34.9770 -108.8810 268° West 417 480 36,000  Level FlightAware ADS-B
Mon 12:23:22 PM 34.9730 -108.9750 267° West 416 479 36,000  Level FlightAware ADS-B
Mon 12:23:57 PM 34.9700 -109.0550 267° West 414 476 36,000  Level FlightAware ADS-B
Mon 12:24:42 PM 34.9660 -109.1560 267° West 412 474 36,000  Level FlightAware ADS-B
Mon 12:25:27 PM 34.9600 -109.2530 266° West 412 474 36,000  Level FlightAware ADS-B
Mon 12:26:07 PM 34.9560 -109.3320 266° West 412 474 36,000  Level FlightAware ADS-B
Mon 12:26:47 PM 34.9510 -109.4110 266° West 412 474 36,000  Level FlightAware ADS-B
Mon 12:27:27 PM 34.9470 -109.4890 266° West 412 474 36,000  Level FlightAware ADS-B
Mon 12:28:17 PM 34.9410 -109.5880 266° West 412 474 36,000  Level FlightAware ADS-B
Mon 12:28:57 PM 34.9360 -109.6670 266° West 412 474 36,000  Level FlightAware ADS-B
Mon 12:29:37 PM 34.9320 -109.7460 266° West 412 474 36,000  Level FlightAware ADS-B
Mon 12:30:17 PM 34.9270 -109.8250 266° West 412 474 36,000  Level FlightAware ADS-B
Mon 12:30:57 PM 34.9230 -109.9030 266° West 412 474 36,000  Level FlightAware ADS-B
Mon 12:31:47 PM 34.9170 -110.0020 266° West 412 474 36,000  Level FlightAware ADS-B
Mon 12:32:47 PM 34.8890 -110.2510 262° West 412 474 36,000  Level FlightAware ADS-B
Mon 12:33:37 PM 34.8800 -110.3740 265° West 412 474 36,000  Level FlightAware ADS-B
Mon 12:34:22 PM 34.8720 -110.4670 264° West 411 473 36,000  Level FlightAware ADS-B
Mon 12:34:57 PM 34.8660 -110.5530 265° West 411 473 36,000  Level FlightAware ADS-B
Mon 12:35:57 PM 34.8550 -110.6990 265° West 413 475 36,000  Level FlightAware ADS-B
Mon 12:36:32 PM 34.8490 -110.7790 265° West 414 476 36,000  Level FlightAware ADS-B
Mon 12:37:22 PM 34.8390 -110.8980 264° West 417 480 36,000  Level FlightAware ADS-B
Mon 12:38:32 PM 34.8260 -111.0600 264° West 419 482 36,000  Level FlightAware ADS-B
Mon 12:39:27 PM 34.8150 -111.1980 264° West 425 489 36,000  Level FlightAware ADS-B
Mon 12:40:12 PM 34.8060 -111.3000 264° West 426 490 36,000  Level FlightAware ADS-B
Mon 12:40:57 PM 34.7970 -111.4120 264° West 429 494 36,000  Level FlightAware ADS-B
Mon 12:41:37 PM 34.7900 -111.5010 265° West 425 489 36,000  Level FlightAware ADS-B
Mon 12:42:12 PM 34.7820 -111.5880 264° West 421 484 36,000  Level FlightAware ADS-B
Mon 12:43:02 PM 34.7720 -111.7060 264° West 417 480 36,000  Level FlightAware ADS-B
Mon 12:43:42 PM 34.7620 -111.8180 264° West 412 474 36,000  Level FlightAware ADS-B
Mon 12:44:27 PM 34.7550 -111.9010 264° West 412 474 36,000  Level FlightAware ADS-B
Mon 12:45:07 PM 34.7470 -111.9940 264° West 412 474 36,000  Level FlightAware ADS-B
Mon 12:45:47 PM 34.7370 -112.1060 264° West 413 475 36,000  Level FlightAware ADS-B
Mon 12:46:32 PM 34.7280 -112.2070 264° West 411 473 36,000  Level FlightAware ADS-B
Mon 12:47:12 PM 34.7190 -112.3030 264° West 411 473 36,000  Level FlightAware ADS-B
Mon 12:47:42 PM 34.7130 -112.3620 263° West 411 473 36,000  Level FlightAware ADS-B
Mon 12:48:22 PM 34.7050 -112.4590 264° West 411 473 36,000  Level FlightAware ADS-B
Mon 12:49:07 PM 34.6930 -112.5640 262° West 411 473 36,000  Level FlightAware ADS-B
Mon 12:49:47 PM 34.6820 -112.6540 262° West 410 472 36,000  Level FlightAware ADS-B
Mon 12:50:27 PM 34.6710 -112.7440 262° West 412 474 36,000  Level FlightAware ADS-B
Mon 12:51:12 PM 34.6590 -112.8480 262° West 410 472 36,000  Level FlightAware ADS-B
Mon 12:51:52 PM 34.6460 -112.9390 260° West 411 473 36,000  Level FlightAware ADS-B
Mon 12:52:32 PM 34.6310 -113.0300 259° West 409 471 36,000  Level FlightAware ADS-B
Mon 12:53:17 PM 34.6120 -113.1300 257° West 409 471 36,000  Level FlightAware ADS-B
Mon 12:53:57 PM 34.5960 -113.2190 258° West 409 471 36,000  Level FlightAware ADS-B
Mon 12:54:37 PM 34.5800 -113.3090 258° West 414 476 36,000  Level FlightAware ADS-B
Mon 12:55:22 PM 34.5620 -113.4090 258° West 414 476 36,000  Level FlightAware ADS-B
Mon 12:56:02 PM 34.5450 -113.5020 258° West 415 478 36,000  Level FlightAware ADS-B
Mon 12:56:47 PM 34.5270 -113.6020 258° West 417 480 36,000  Level FlightAware ADS-B
Mon 12:57:27 PM 34.5110 -113.6940 258° West 419 482 36,000  Level FlightAware ADS-B
Mon 12:58:12 PM 34.4910 -113.8000 257° West 419 482 36,000  Level FlightAware ADS-B
Mon 12:58:52 PM 34.4760 -113.8810 257° West 418 481 36,000  Level FlightAware ADS-B
Mon 12:59:47 PM 34.4530 -114.0070 258° West 420 483 36,000  Level FlightAware ADS-B
Mon 01:00:27 PM 34.4340 -114.1070 257° West 425 489 36,000  Level FlightAware ADS-B
Mon 01:01:12 PM 34.4150 -114.2130 258° West 427 491 36,000  Level FlightAware ADS-B
Mon 01:01:52 PM 34.3970 -114.3050 257° West 426 490 36,000  Level FlightAware ADS-B
Mon 01:02:37 PM 34.3770 -114.4110 257° West 426 490 36,000  Level FlightAware ADS-B
Mon 01:03:12 PM 34.3630 -114.4840 257° West 426 490 36,000  Level FlightAware ADS-B
Mon 01:04:12 PM 34.3360 -114.6270 257° West 428 493 36,000  Level FlightAware ADS-B
Mon 01:04:52 PM 34.3210 -114.7060 257° West 428 493 36,000  Level FlightAware ADS-B
Mon 01:05:32 PM 34.3060 -114.7860 257° West 428 493 36,000  Level FlightAware ADS-B
Mon 01:06:22 PM 34.2870 -114.8850 257° West 428 493 36,000  Level FlightAware ADS-B
Mon 01:07:02 PM 34.2720 -114.9650 257° West 428 493 36,000  Level FlightAware ADS-B
Mon 01:07:42 PM 34.2570 -115.0440 257° West 428 493 36,000  Level FlightAware ADS-B
Mon 01:08:27 PM 34.2200 -115.2300 257° West 435 501 36,000 -494 Level FlightAware ADS-B
Mon 01:09:07 PM 34.2010 -115.3250 256° West 438 504 35,300 -988 Descending FlightAware ADS-B
Mon 01:09:52 PM 34.1800 -115.4310 257° West 441 507 34,600 -1,040 Descending FlightAware ADS-B
Mon 01:10:22 PM 34.1650 -115.5050 256° West 449 517 34,000 -1,050 Descending FlightAware ADS-B
Mon 01:11:12 PM 34.1410 -115.6260 257° West 454 522 33,200 -667 Descending FlightAware ADS-B
Mon 01:11:52 PM 34.1210 -115.7260 256° West 461 531 33,000 -353 Descending FlightAware ADS-B
Mon 01:12:37 PM 34.1020 -115.8390 259° West 456 525 32,700 -733 Descending FlightAware ADS-B
Mon 01:13:22 PM 34.0850 -115.9510 260° West 443 510 31,900 -1,271 Descending FlightAware ADS-B
Mon 01:14:02 PM 34.0710 -116.0470 260° West 437 503 30,900 -1,425 Descending FlightAware ADS-B
Mon 01:14:42 PM 34.0570 -116.1440 260° West 430 495 30,000 -1,271 Descending FlightAware ADS-B
Mon 01:15:27 PM 34.0420 -116.2430 260° West 423 487 29,100 -1,271 Descending FlightAware ADS-B
Mon 01:16:07 PM 34.0280 -116.3370 260° West 417 480 28,200 -1,425 Descending FlightAware ADS-B
Mon 01:16:47 PM 34.0140 -116.4290 260° West 408 470 27,200 -1,765 Descending FlightAware ADS-B
Mon 01:17:32 PM 34.0020 -116.5290 262° West 398 458 25,700 -2,047 Descending FlightAware ADS-B
Mon 01:18:12 PM 33.9950 -116.6170 265° West 392 451 24,300 -2,047 Descending FlightAware ADS-B
Mon 01:18:57 PM 33.9870 -116.7120 264° West 387 445 22,800 -2,047 Descending FlightAware ADS-B
Mon 01:19:37 PM 33.9800 -116.7980 264° West 382 440 21,400 -2,025 Descending FlightAware ADS-B
Mon 01:20:17 PM 33.9740 -116.8800 265° West 377 434 20,100 -2,047 Descending FlightAware ADS-B
Mon 01:21:02 PM 33.9660 -116.9770 264° West 366 421 18,500 -1,976 Descending FlightAware ADS-B
Mon 01:21:42 PM 33.9590 -117.0520 264° West 355 409 17,300 -1,129 Descending FlightAware ADS-B
Mon 01:22:27 PM 33.9520 -117.1370 264° West 328 377 16,900 -565 Descending FlightAware ADS-B
Mon 01:23:07 PM 33.9460 -117.2100 264° West 323 372 16,500 -975 Descending FlightAware ADS-B
Mon 01:23:47 PM 33.9400 -117.2790 264° West 316 364 15,600 -1,482 Descending FlightAware ADS-B
Mon 01:24:32 PM 33.9340 -117.3580 265° West 324 373 14,400 -1,694 Descending FlightAware ADS-B
Mon 01:25:12 PM 33.9510 -117.4290 286° West 318 366 13,200 -1,694 Descending FlightAware ADS-B
Mon 01:25:57 PM 33.9770 -117.5000 294° West 314 361 12,000 -1,624 Descending FlightAware ADS-B
Mon 01:26:37 PM 33.9990 -117.5640 293° West 309 356 10,900 -1,286 Descending FlightAware ADS-B
Mon 01:27:07 PM 34.0110 -117.6120 287° West 291 335 10,500 -771 Descending FlightAware ADS-B
Mon 01:27:47 PM 34.0080 -117.6750 267° West 274 315 10,000 -554 Descending FlightAware ADS-B
Mon 01:28:12 PM 34.0040 -117.7140 263° West 264 304 9,900 -600 Descending FlightAware ADS-B
Mon 01:28:27 PM 34.0020 -117.7340 263° West 265 305 9,600 -1,200 Descending FlightAware ADS-B
Mon 01:28:57 PM 33.9970 -117.7780 262° West 263 303 9,000 -1,200 Descending FlightAware ADS-B
Mon 01:29:27 PM 33.9930 -117.8220 264° West 258 297 8,400 -1,091 Descending FlightAware ADS-B
Mon 01:29:52 PM 33.9900 -117.8570 264° West 254 292 8,000 -1,200 Descending FlightAware ADS-B
Mon 01:30:22 PM 33.9860 -117.9000 264° West 252 290 7,300 -1,527 Descending FlightAware ADS-B
Mon 01:30:47 PM 33.9820 -117.9340 262° West 263 303 6,600 -1,418 Descending FlightAware ADS-B
Mon 01:31:17 PM 33.9780 -117.9780 264° West 266 306 6,000 -1,300 Descending FlightAware ADS-B
Mon 01:31:47 PM 33.9730 -118.0220 262° West 265 305 5,300 -1,080 Descending FlightAware ADS-B
Mon 01:32:07 PM 33.9710 -118.0510 265° West 248 285 5,100 -400 Descending FlightAware ADS-B
Mon 01:32:32 PM 33.9670 -118.0840 262° West 223 257 5,000 -764 Descending FlightAware ADS-B
Mon 01:33:02 PM 33.9640 -118.1210 264° West 221 254 4,400 -1,200 Descending FlightAware ADS-B
Mon 01:33:12 PM 33.9630 -118.1330 264° West 220 253 4,200 -1,200 Descending FlightAware ADS-B
Mon 01:33:42 PM 33.9590 -118.1700 263° West 221 254 3,600 -1,200 Descending FlightAware ADS-B
Mon 01:33:57 PM 33.9570 -118.1880 262° West 221 254 3,300 -1,200 Descending FlightAware ADS-B
Mon 01:34:12 PM 33.9550 -118.2050 262° West 215 247 3,000 -1,200 Descending FlightAware ADS-B
Mon 01:34:32 PM 33.9530 -118.2280 264° West 202 232 2,600 -960 Descending FlightAware ADS-B
Mon 01:35:02 PM 33.9500 -118.2580 263° West 194 223 2,200 -720 Descending FlightAware ADS-B
Mon 01:35:22 PM 33.9490 -118.2670 262° West 190 219 2,000 -900 Descending FlightAware ADS-B
Mon 01:36:02 PM 33.9450 -118.3100 264° West 162 186 1,300 -600 Descending FlightAware ADS-B
Mon 01:36:42 PM 33.9420 -118.3380 263° West 162 186 1,200 -550 Descending FlightAware ADS-B
Mon 01:38:02 PM 33.9360 -118.3950 263° West 135 155 200 -750 Descending FlightAware ADS-B
Mon 01:45:00 PM 33.9333 -118.4000 270° West  Level FlightAware Approximate
Mon 01:46:00 PM 33.9425 -118.4081 270° West  Level Estimated

Login

Don't have an account? Register now (free) for customized features, flight alerts, and more!